Time;durP1;ratioP1;P1;durP2;ratioP2;P2;SDS_P1;SDS_P2;PMS_P1;PMS_P2;Temp;Humidity;BMP_temperature;BMP_pressure;BME280_temperature;BME280_humidity;BME280_pressure;Samples;Min_cycle;Max_cycle;Signal;HPM_P1;HPM_P2
2023/01/01 00:00:11;;;;;;;137.77;93.15;;;;;;;12.20;80.95;98376.03;4998650;28;20524;-82
2023/01/01 00:02:37;;;;;;;158.10;100.55;;;;;;;12.14;81.10;98374.19;4996551;28;20073;-82
2023/01/01 00:05:04;;;;;;;150.95;103.68;;;;;;;12.16;81.15;98392.41;4997930;28;20572;-82
2023/01/01 00:07:30;;;;;;;162.45;110.57;;;;;;;12.07;81.28;98385.75;4996129;28;20041;-82
2023/01/01 00:12:39;;;;;;;170.23;114.55;;;;;;;12.01;81.71;98393.41;4996861;28;20041;-82
2023/01/01 00:15:06;;;;;;;179.25;121.35;;;;;;;11.91;81.93;98379.84;4996729;28;20037;-82
2023/01/01 00:17:31;;;;;;;183.15;124.88;;;;;;;11.90;82.11;98386.13;4996470;28;20559;-82
2023/01/01 00:19:57;;;;;;;168.52;117.20;;;;;;;11.89;82.03;98383.69;4996342;28;20062;-82
2023/01/01 00:22:23;;;;;;;174.02;117.97;;;;;;;11.82;82.50;98386.31;4995807;28;20041;-82
2023/01/01 00:24:49;;;;;;;173.48;116.75;;;;;;;11.77;82.69;98386.09;4997421;28;20729;-82
2023/01/01 00:27:14;;;;;;;160.68;108.28;;;;;;;11.64;83.05;98376.38;4995425;28;20065;-82
2023/01/01 00:29:40;;;;;;;161.40;108.22;;;;;;;11.66;83.30;98390.09;5004580;28;20041;-82
2023/01/01 00:32:05;;;;;;;156.98;102.90;;;;;;;11.66;83.34;98391.91;5003143;28;20109;-82
2023/01/01 00:34:31;;;;;;;160.02;105.47;;;;;;;11.61;83.30;98383.81;5003704;28;20438;-82
2023/01/01 00:36:56;;;;;;;152.77;102.68;;;;;;;11.63;83.31;98400.19;5004685;28;20548;-82
2023/01/01 00:39:22;;;;;;;152.52;102.75;;;;;;;11.57;83.62;98395.72;5002588;28;20381;-82
2023/01/01 00:41:47;;;;;;;152.10;99.00;;;;;;;11.47;83.78;98375.91;5002923;28;20038;-83
2023/01/01 00:44:13;;;;;;;149.30;98.07;;;;;;;11.53;83.97;98385.63;5001310;28;20053;-82
2023/01/01 00:46:38;;;;;;;142.40;95.85;;;;;;;11.53;83.67;98376.94;5000631;28;20037;-82
2023/01/01 00:49:04;;;;;;;154.23;99.90;;;;;;;11.50;83.85;98375.50;5002618;28;20113;-82
2023/01/01 00:51:29;;;;;;;137.27;97.47;;;;;;;11.50;83.84;98374.69;4990798;28;20042;-83
2023/01/01 00:53:55;;;;;;;138.20;91.93;;;;;;;11.42;83.49;98373.06;5002903;28;20105;-82
2023/01/01 00:56:20;;;;;;;140.10;93.72;;;;;;;11.49;83.61;98379.13;5000688;28;20121;-82
2023/01/01 00:58:46;;;;;;;136.75;89.03;;;;;;;11.48;83.72;98388.03;5000523;28;20088;-82
2023/01/01 01:01:11;;;;;;;135.63;89.70;;;;;;;11.48;83.68;98381.97;5001213;28;20045;-82
2023/01/01 01:03:38;;;;;;;136.52;88.03;;;;;;;11.47;83.69;98381.16;5000833;28;20044;-82
2023/01/01 01:06:04;;;;;;;130.93;83.75;;;;;;;11.47;83.67;98396.13;4999740;28;20117;-82
2023/01/01 01:08:33;;;;;;;122.32;81.60;;;;;;;11.46;83.46;98390.06;5000288;28;20117;-82
2023/01/01 01:11:20;;;;;;;120.07;79.82;;;;;;;11.47;83.41;98382.97;4999634;28;20717;-82
2023/01/01 01:13:49;;;;;;;113.88;74.05;;;;;;;11.44;83.29;98384.19;5000124;28;20113;-82
2023/01/01 01:16:17;;;;;;;110.28;72.72;;;;;;;11.47;83.21;98386.41;4998854;28;20056;-82
2023/01/01 01:18:44;;;;;;;112.38;72.22;;;;;;;11.45;83.17;98380.53;4999544;28;20505;-82
2023/01/01 01:21:14;;;;;;;102.97;67.75;;;;;;;11.48;83.07;98393.28;4998140;28;20033;-82
2023/01/01 01:23:39;;;;;;;104.80;68.88;;;;;;;11.41;83.17;98373.28;5001284;28;20157;-82
2023/01/01 01:26:18;;;;;;;101.03;66.70;;;;;;;11.45;83.22;98383.16;5001925;28;20125;-82
2023/01/01 01:28:43;;;;;;;85.78;56.45;;;;;;;11.43;83.08;98374.69;5001161;28;20033;-82
2023/01/01 01:31:10;;;;;;;97.45;60.42;;;;;;;11.48;82.81;98377.53;5000202;28;20485;-82
2023/01/01 01:33:36;;;;;;;91.60;59.00;;;;;;;11.47;82.90;98381.16;5001056;28;20045;-82
2023/01/01 01:36:04;;;;;;;84.82;53.67;;;;;;;11.45;82.77;98369.22;5001564;28;20374;-82
2023/01/01 01:38:30;;;;;;;79.60;51.60;;;;;;;11.51;82.53;98381.56;5000328;28;20169;-82
2023/01/01 01:40:55;;;;;;;85.65;54.33;;;;;;;11.41;82.75;98358.31;5001522;28;20117;-83
2023/01/01 01:43:43;;;;;;;82.18;53.25;;;;;;;11.50;82.59;98380.75;5000723;28;20034;-83
2023/01/01 01:46:19;;;;;;;81.95;51.67;;;;;;;11.51;82.28;98382.41;4999296;28;20092;-82
2023/01/01 01:48:51;;;;;;;78.63;50.55;;;;;;;11.48;82.61;98385.41;5001608;28;20113;-82
2023/01/01 01:51:31;;;;;;;72.93;46.38;;;;;;;11.52;82.52;98386.63;5000217;28;20049;-82
2023/01/01 01:54:04;;;;;;;70.22;45.13;;;;;;;11.52;82.16;98384.00;5001164;28;20042;-82
2023/01/01 01:56:56;;;;;;;72.63;45.38;;;;;;;11.47;82.29;98381.16;5001223;28;20188;-82
2023/01/01 01:59:28;;;;;;;64.80;42.15;;;;;;;11.44;82.30;98371.03;5007737;28;20096;-82
2023/01/01 02:01:55;;;;;;;63.55;40.45;;;;;;;11.49;81.99;98379.13;4997891;28;20077;-82
2023/01/01 02:04:22;;;;;;;57.25;36.13;;;;;;;11.51;81.86;98366.63;4999682;28;20038;-82
2023/01/01 02:06:50;;;;;;;52.97;36.38;;;;;;;11.53;82.01;98377.75;4999152;28;20038;-83
2023/01/01 02:09:16;;;;;;;54.25;34.53;;;;;;;11.56;81.61;98365.22;4999024;28;20034;-83
2023/01/01 02:11:41;;;;;;;55.83;36.17;;;;;;;11.60;81.62;98363.81;4999852;28;20084;-83
2023/01/01 02:14:07;;;;;;;60.95;38.88;;;;;;;11.61;81.35;98375.94;4999071;28;20516;-82
2023/01/01 02:16:48;;;;;;;57.13;37.25;;;;;;;11.55;81.48;98379.34;4999477;28;20105;-82
2023/01/01 02:20:01;;;;;;;;;;;;;;;11.51;81.57;98377.16;4997859;28;20038;-83
2023/01/01 02:22:42;;;;;;;49.47;31.60;;;;;;;11.49;81.34;98367.81;4997247;28;20017;-82
2023/01/01 02:25:42;;;;;;;47.90;32.28;;;;;;;11.45;81.60;98372.66;5002537;28;20045;-83
2023/01/01 02:28:46;;;;;;;46.13;30.90;;;;;;;11.43;81.73;98369.44;5001046;28;20049;-82
2023/01/01 02:31:23;;;;;;;47.72;31.08;;;;;;;11.42;81.65;98373.06;5004135;28;20274;-82
2023/01/01 02:33:54;;;;;;;47.58;29.80;;;;;;;11.34;81.77;98375.88;5002653;28;20083;-83
2023/01/01 02:36:24;;;;;;;49.72;30.15;;;;;;;11.35;81.89;98374.06;5001516;28;20046;-83
2023/01/01 02:38:54;;;;;;;45.95;30.13;;;;;;;11.32;82.10;98371.81;5001631;28;20068;-82
2023/01/01 02:41:40;;;;;;;46.60;30.13;;;;;;;11.29;82.00;98377.47;5000116;28;20049;-83
2023/01/01 02:44:06;;;;;;;44.15;29.67;;;;;;;11.26;82.09;98378.66;5001385;28;20038;-83
2023/01/01 02:46:34;;;;;;;43.15;28.45;;;;;;;11.24;82.11;98380.69;4996608;28;20034;-82
2023/01/01 02:49:00;;;;;;;45.97;26.98;;;;;;;11.21;81.97;98371.38;5000770;28;20083;-82
2023/01/01 02:51:42;;;;;;;38.55;24.70;;;;;;;11.25;81.90;98371.78;4999038;28;20041;-82
2023/01/01 02:54:24;;;;;;;35.67;22.73;;;;;;;11.25;82.01;98366.53;5000017;28;20500;-82
2023/01/01 02:57:04;;;;;;;33.42;21.40;;;;;;;11.26;81.78;98373.41;4999591;28;20124;-82
2023/01/01 03:02:59;;;;;;;;;;;;;;;11.26;81.68;98368.16;4998960;28;20470;-82
2023/01/01 03:06:22;;;;;;;35.80;22.52;;;;;;;11.22;81.72;98353.81;4998044;28;19917;-82
2023/01/01 03:08:53;;;;;;;37.55;22.40;;;;;;;11.19;81.78;98360.25;4999612;28;20041;-82
2023/01/01 03:11:24;;;;;;;34.38;22.20;;;;;;;11.17;82.03;98364.09;4996797;28;20069;-82
2023/01/01 03:14:06;;;;;;;34.35;22.83;;;;;;;11.11;82.17;98368.31;4997253;28;20030;-82
2023/01/01 03:16:37;;;;;;;34.72;22.20;;;;;;;11.04;82.29;98369.31;4999944;28;20038;-82
2023/01/01 03:19:12;;;;;;;;;;;;;;;11.02;82.37;98366.84;4997392;28;20059;-82
2023/01/01 03:22:07;;;;;;;28.73;18.33;;;;;;;10.98;82.73;98374.34;4998836;28;19952;-82
2023/01/01 03:24:41;;;;;;;29.75;18.90;;;;;;;10.95;82.76;98361.59;5003404;28;20034;-83
2023/01/01 03:27:39;;;;;;;28.45;17.95;;;;;;;10.94;82.90;98374.91;5001729;28;20042;-82
2023/01/01 03:30:09;;;;;;;25.17;17.13;;;;;;;10.92;82.93;98367.25;5000247;28;20057;-82
2023/01/01 03:32:59;;;;;;;28.40;17.53;;;;;;;10.89;82.88;98369.44;4997730;28;20034;-82
2023/01/01 03:35:33;;;;;;;26.35;17.17;;;;;;;10.83;82.98;98378.88;4999994;28;20269;-82
2023/01/01 03:38:02;;;;;;;28.05;17.13;;;;;;;10.83;83.06;98368.38;4998996;28;20038;-82
2023/01/01 03:40:36;;;;;;;24.23;15.75;;;;;;;10.78;83.25;98375.22;5000536;28;20033;-82
2023/01/01 03:43:33;;;;;;;24.83;16.00;;;;;;;10.79;83.28;98375.03;4999567;28;20168;-82
2023/01/01 03:46:03;;;;;;;22.10;15.20;;;;;;;10.75;83.28;98381.69;4998210;28;20087;-83
2023/01/01 03:48:54;;;;;;;24.13;16.35;;;;;;;10.79;83.22;98376.84;4999074;28;20065;-82
2023/01/01 03:51:26;;;;;;;24.42;15.43;;;;;;;10.84;83.05;98374.44;4997567;28;20029;-82
2023/01/01 03:54:00;;;;;;;23.10;15.18;;;;;;;10.85;82.77;98370.81;4999696;28;20524;-82
2023/01/01 03:56:44;;;;;;;20.73;14.27;;;;;;;10.83;82.68;98381.50;4997442;28;20378;-82
2023/01/01 03:59:22;;;;;;;24.88;15.07;;;;;;;10.82;82.70;98390.38;4997486;28;20045;-82
2023/01/01 04:01:55;;;;;;;22.90;15.05;;;;;;;10.81;82.93;98391.41;4996403;28;20047;-82
2023/01/01 04:04:23;;;;;;;22.77;15.13;;;;;;;10.77;82.82;98395.41;4997899;28;20504;-82
2023/01/01 04:06:49;;;;;;;21.17;13.75;;;;;;;10.81;82.65;98406.34;5001643;28;20045;-82
2023/01/01 04:09:22;;;;;;;21.73;14.32;;;;;;;10.81;82.51;98411.59;5001220;28;20030;-82
2023/01/01 04:12:02;;;;;;;21.58;13.68;;;;;;;10.77;82.70;98411.16;5005440;28;20061;-82
2023/01/01 04:14:34;;;;;;;21.27;13.65;;;;;;;10.77;82.91;98420.84;5000167;28;20026;-82
2023/01/01 04:17:01;;;;;;;23.02;13.45;;;;;;;10.77;82.34;98424.25;5001737;28;20034;-82
2023/01/01 04:19:27;;;;;;;19.85;13.32;;;;;;;10.75;82.70;98413.16;5000223;28;20034;-82
2023/01/01 04:21:53;;;;;;;20.05;13.70;;;;;;;10.74;82.42;98416.78;5003847;28;20038;-82
2023/01/01 04:24:19;;;;;;;19.10;12.90;;;;;;;10.74;82.39;98423.84;5003505;28;20389;-83
2023/01/01 04:26:45;;;;;;;20.25;12.55;;;;;;;10.79;82.37;98426.69;5003652;28;20113;-82
2023/01/01 04:29:10;;;;;;;18.75;12.30;;;;;;;10.78;82.35;98418.00;5004268;28;20042;-82
2023/01/01 04:31:36;;;;;;;19.52;12.40;;;;;;;10.77;82.27;98410.34;5001674;28;20042;-83
2023/01/01 04:34:01;;;;;;;19.25;12.60;;;;;;;10.77;82.05;98421.63;5005195;28;20117;-82
2023/01/01 04:36:27;;;;;;;21.80;12.73;;;;;;;10.76;82.34;98425.28;5003440;28;20092;-83
2023/01/01 04:38:52;;;;;;;16.35;11.27;;;;;;;10.76;82.46;98420.03;5003747;28;20042;-82
2023/01/01 04:41:18;;;;;;;18.50;12.40;;;;;;;10.74;82.29;98426.47;5002869;28;20049;-82
2023/01/01 04:43:49;;;;;;;19.70;12.73;;;;;;;10.70;82.30;98423.41;5002217;28;20517;-82
2023/01/01 04:46:16;;;;;;;18.67;12.80;;;;;;;10.69;82.50;98434.91;5000780;28;20037;-82
2023/01/01 04:48:42;;;;;;;18.98;12.68;;;;;;;10.65;82.59;98438.91;5002471;28;20033;-82
2023/01/01 04:51:11;;;;;;;18.42;12.70;;;;;;;10.62;82.89;98434.06;5001797;28;20041;-82
2023/01/01 04:53:36;;;;;;;19.60;12.27;;;;;;;10.64;82.97;98443.34;5001016;28;20069;-82
2023/01/01 04:56:13;;;;;;;17.95;11.93;;;;;;;10.59;82.82;98439.69;5001836;28;20473;-82
2023/01/01 04:58:41;;;;;;;18.50;12.15;;;;;;;10.57;83.21;98441.69;5000634;28;20030;-82
2023/01/01 05:01:14;;;;;;;17.77;12.18;;;;;;;10.51;83.38;98437.22;4999646;28;20050;-82
2023/01/01 05:03:39;;;;;;;15.57;10.85;;;;;;;10.55;82.85;98438.44;5001208;28;20038;-82
2023/01/01 05:06:07;;;;;;;15.23;10.35;;;;;;;10.65;82.39;98449.41;5000173;28;20374;-82
2023/01/01 05:08:37;;;;;;;14.95;9.88;;;;;;;10.63;82.14;98446.19;4999616;28;20100;-82
2023/01/01 05:11:27;;;;;;;18.77;10.52;;;;;;;10.65;82.10;98455.47;5000186;28;20073;-82
2023/01/01 05:13:56;;;;;;;17.23;10.27;;;;;;;10.70;82.23;98465.38;4999293;28;20046;-82
2023/01/01 05:16:26;;;;;;;17.67;10.57;;;;;;;10.63;82.17;98462.72;4996267;28;20129;-82
2023/01/01 05:18:53;;;;;;;17.27;10.80;;;;;;;10.63;82.23;98470.59;5000177;28;20053;-82
2023/01/01 05:21:22;;;;;;;15.98;10.77;;;;;;;10.60;82.33;98467.53;5002082;28;20045;-82
2023/01/01 05:23:53;;;;;;;14.65;9.88;;;;;;;10.57;82.19;98468.72;5003700;28;20061;-82
2023/01/01 05:26:23;;;;;;;17.13;10.35;;;;;;;10.56;82.30;98467.13;5003756;28;20092;-82
2023/01/01 05:28:49;;;;;;;16.65;10.90;;;;;;;10.53;82.38;98466.66;5002559;28;20061;-82
2023/01/01 05:31:19;;;;;;;17.95;10.15;;;;;;;10.56;82.24;98471.56;5001404;28;20026;-82
2023/01/01 05:33:44;;;;;;;13.93;9.27;;;;;;;10.55;82.11;98469.91;5002644;28;20397;-82
2023/01/01 05:36:17;;;;;;;14.05;9.50;;;;;;;10.56;82.09;98461.06;5001085;28;20037;-82
2023/01/01 05:38:42;;;;;;;13.75;9.50;;;;;;;10.53;81.99;98458.81;5002398;28;20441;-82
2023/01/01 05:41:12;;;;;;;15.20;9.43;;;;;;;10.57;82.00;98458.25;5001009;28;20044;-82
2023/01/01 05:43:38;;;;;;;13.00;9.32;;;;;;;10.54;82.14;98458.59;5001603;28;20037;-82
2023/01/01 05:46:07;;;;;;;14.88;9.57;;;;;;;10.53;82.44;98458.81;5005320;28;20084;-82
2023/01/01 05:48:35;;;;;;;15.15;9.55;;;;;;;10.48;82.39;98458.56;5000953;28;20037;-82
2023/01/01 05:51:11;;;;;;;13.13;8.65;;;;;;;10.42;82.81;98460.94;5000505;28;20042;-82
2023/01/01 05:53:37;;;;;;;17.10;8.45;;;;;;;10.43;82.80;98456.50;5006513;28;20146;-82
2023/01/01 05:56:04;;;;;;;13.57;8.25;;;;;;;10.44;82.62;98474.69;5000378;28;20477;-82
2023/01/01 05:58:31;;;;;;;11.95;7.28;;;;;;;10.49;82.76;98465.41;4999190;28;20038;-82
2023/01/01 06:00:57;;;;;;;12.10;7.25;;;;;;;10.50;82.46;98473.13;4998213;28;20433;-82
2023/01/01 06:03:22;;;;;;;12.07;7.15;;;;;;;10.51;82.44;98479.16;4998579;28;20072;-82
2023/01/01 06:05:48;;;;;;;14.88;7.80;;;;;;;10.45;82.44;98476.31;4998248;28;20093;-82
2023/01/01 06:08:13;;;;;;;12.13;7.47;;;;;;;10.47;82.20;98478.72;4997971;28;20430;-82
2023/01/01 06:10:39;;;;;;;13.07;8.15;;;;;;;10.46;82.45;98482.34;4999079;28;20038;-82
2023/01/01 06:13:05;;;;;;;11.75;7.15;;;;;;;10.44;82.38;98482.56;4998942;28;20057;-82
2023/01/01 06:15:30;;;;;;;11.25;6.80;;;;;;;10.45;82.61;98492.03;4999063;28;20035;-82
2023/01/01 06:17:58;;;;;;;12.15;7.07;;;;;;;10.44;82.47;98479.94;4998514;28;20057;-82
2023/01/01 06:20:24;;;;;;;9.73;6.90;;;;;;;10.40;82.22;98472.63;4995785;28;20045;-82
2023/01/01 06:22:49;;;;;;;9.32;7.03;;;;;;;10.42;82.42;98476.66;5001875;28;20065;-82
2023/01/01 06:25:15;;;;;;;12.10;7.05;;;;;;;10.37;82.55;98473.78;5002846;28;20039;-82
2023/01/01 06:27:40;;;;;;;10.10;6.88;;;;;;;10.38;82.43;98480.69;5002400;28;20041;-82
2023/01/01 06:30:07;;;;;;;11.05;6.80;;;;;;;10.39;82.58;98471.00;5001643;28;20034;-82
2023/01/01 06:32:33;;;;;;;10.68;6.53;;;;;;;10.36;82.45;98471.38;4999641;28;20072;-82
2023/01/01 06:34:58;;;;;;;12.77;6.20;;;;;;;10.39;82.16;98481.50;5000094;28;20670;-82
2023/01/01 06:37:24;;;;;;;9.60;6.07;;;;;;;10.36;82.34;98480.03;5000298;28;20034;-82
2023/01/01 06:39:50;;;;;;;11.20;6.50;;;;;;;10.37;82.25;98481.66;4999278;28;20494;-82
2023/01/01 06:42:15;;;;;;;10.73;6.13;;;;;;;10.32;82.30;98481.44;5000009;28;20037;-82
2023/01/01 06:44:41;;;;;;;11.88;7.18;;;;;;;10.27;82.71;98489.06;4998068;28;20114;-82
2023/01/01 06:47:06;;;;;;;12.07;7.10;;;;;;;10.26;82.70;98502.34;4996406;28;20038;-82
2023/01/01 06:49:32;;;;;;;10.40;7.05;;;;;;;10.21;82.92;98504.69;4999663;28;20037;-82
2023/01/01 06:51:57;;;;;;;11.38;6.72;;;;;;;10.19;82.95;98512.72;4998541;28;20069;-82
2023/01/01 06:54:23;;;;;;;9.30;6.10;;;;;;;10.12;82.87;98496.94;4999578;28;20501;-82
2023/01/01 06:56:48;;;;;;;8.15;6.20;;;;;;;10.19;82.96;98513.56;4998756;28;20445;-83
2023/01/01 06:59:16;;;;;;;8.48;5.78;;;;;;;10.18;82.87;98521.59;4997168;28;20069;-82
2023/01/01 07:01:41;;;;;;;10.07;6.45;;;;;;;10.18;82.83;98527.63;5001182;28;20069;-82
2023/01/01 07:04:13;;;;;;;9.35;5.55;;;;;;;10.19;82.96;98528.44;4996862;28;20049;-82
2023/01/01 07:06:39;;;;;;;10.35;6.38;;;;;;;10.19;83.14;98523.19;4996981;28;20113;-82
2023/01/01 07:09:07;;;;;;;10.85;7.07;;;;;;;10.21;83.00;98529.09;4995812;28;20439;-82
2023/01/01 07:11:33;;;;;;;9.38;6.40;;;;;;;10.22;83.20;98538.56;4995941;28;20065;-82
2023/01/01 07:13:58;;;;;;;10.90;6.55;;;;;;;10.22;83.23;98525.47;4995030;28;20105;-82
2023/01/01 07:16:24;;;;;;;10.30;6.25;;;;;;;10.23;82.92;98536.75;5001491;28;20061;-82
2023/01/01 07:18:51;;;;;;;11.80;7.20;;;;;;;10.28;82.81;98543.09;4998385;28;20056;-82
2023/01/01 07:22:04;;;;;;;11.13;7.45;;;;;;;10.31;83.06;98542.72;5004727;28;20042;-82
2023/01/01 07:24:32;;;;;;;12.05;6.82;;;;;;;10.32;82.89;98549.59;5002685;28;20042;-82
2023/01/01 07:26:57;;;;;;;12.75;8.23;;;;;;;10.33;82.87;98545.16;4999865;28;20670;-82
2023/01/01 07:29:23;;;;;;;9.85;6.03;;;;;;;10.41;82.54;98548.47;4998903;28;20080;-82
2023/01/01 07:31:48;;;;;;;11.40;6.82;;;;;;;10.45;82.46;98562.03;5000826;28;20122;-82
2023/01/01 07:34:18;;;;;;;12.65;7.57;;;;;;;10.51;82.44;98565.72;5001653;28;20050;-82
2023/01/01 07:36:44;;;;;;;14.10;7.25;;;;;;;10.56;82.36;98566.78;4999926;28;20045;-82
2023/01/01 07:39:10;;;;;;;10.57;6.72;;;;;;;10.59;82.04;98566.38;4997419;28;20037;-82
2023/01/01 07:41:36;;;;;;;10.82;7.05;;;;;;;10.67;81.70;98570.69;4998090;28;20499;-82
2023/01/01 07:44:01;;;;;;;10.70;6.85;;;;;;;10.72;81.66;98565.69;4998901;28;20478;-82
2023/01/01 07:46:27;;;;;;;9.85;6.82;;;;;;;10.81;81.40;98567.19;4995723;28;20049;-82
2023/01/01 07:48:52;;;;;;;12.88;7.10;;;;;;;10.82;81.16;98568.81;4998574;28;20042;-82
2023/01/01 07:51:18;;;;;;;9.52;6.78;;;;;;;10.85;81.06;98565.78;4997188;28;20034;-82
2023/01/01 07:53:43;;;;;;;9.75;7.07;;;;;;;10.90;80.99;98570.47;4998549;28;20066;-82
2023/01/01 07:56:09;;;;;;;10.88;6.97;;;;;;;10.89;80.81;98572.28;4997602;28;20026;-81
2023/01/01 07:58:39;;;;;;;12.85;7.53;;;;;;;10.95;80.69;98587.28;4996890;28;20042;-82
2023/01/01 08:01:05;;;;;;;10.88;6.90;;;;;;;11.03;80.44;98593.38;4997418;28;20058;-82
2023/01/01 08:03:30;;;;;;;10.80;7.55;;;;;;;11.05;80.10;98597.47;4996683;28;20042;-82
2023/01/01 08:05:55;;;;;;;10.10;6.70;;;;;;;11.17;79.75;98600.38;4996525;28;20113;-82
2023/01/01 08:08:21;;;;;;;12.73;7.75;;;;;;;11.23;79.63;98607.50;4993289;28;20572;-82
2023/01/01 08:10:46;;;;;;;11.00;7.13;;;;;;;11.34;79.14;98604.34;4993390;28;20412;-82
2023/01/01 08:13:12;;;;;;;13.90;7.85;;;;;;;11.38;78.62;98607.38;4995875;28;20034;-82
2023/01/01 08:15:37;;;;;;;11.95;7.38;;;;;;;11.48;78.65;98605.22;4998562;28;20105;-82
2023/01/01 08:18:04;;;;;;;12.60;7.38;;;;;;;11.56;78.39;98607.69;4998515;28;20061;-82
2023/01/01 08:20:31;;;;;;;11.98;7.07;;;;;;;11.63;77.67;98615.63;5001371;28;20784;-82
2023/01/01 08:22:57;;;;;;;12.13;7.80;;;;;;;11.67;77.50;98619.50;4998461;28;20038;-82
2023/01/01 08:25:23;;;;;;;12.57;7.20;;;;;;;11.71;77.50;98615.47;5000806;28;20092;-82
2023/01/01 08:27:48;;;;;;;10.70;7.55;;;;;;;11.71;77.42;98618.09;4999080;28;20065;-82
2023/01/01 08:30:16;;;;;;;14.68;8.07;;;;;;;11.78;77.23;98629.47;4998406;28;20042;-82
2023/01/01 08:32:41;;;;;;;11.55;7.55;;;;;;;11.82;77.08;98625.47;4998598;28;20038;-82
2023/01/01 08:35:08;;;;;;;14.88;8.32;;;;;;;11.84;77.03;98626.09;4999210;28;20092;-82
2023/01/01 08:37:34;;;;;;;11.02;7.90;;;;;;;11.85;76.64;98626.91;4997510;28;20034;-82
2023/01/01 08:39:59;;;;;;;13.10;8.25;;;;;;;11.92;76.83;98631.16;4997500;28;20158;-82
2023/01/01 08:42:25;;;;;;;11.10;7.70;;;;;;;11.93;76.66;98632.78;4998088;28;20112;-82
2023/01/01 08:44:50;;;;;;;13.63;8.35;;;;;;;11.97;76.56;98636.66;4994611;28;20038;-82
2023/01/01 08:47:24;;;;;;;12.25;7.47;;;;;;;11.99;76.50;98644.34;4995910;28;20121;-83
2023/01/01 08:49:50;;;;;;;12.65;7.53;;;;;;;11.95;76.31;98636.06;4997230;28;20047;-82
2023/01/01 08:52:16;;;;;;;11.05;7.40;;;;;;;12.03;76.37;98649.03;4999879;28;20038;-82
2023/01/01 08:54:42;;;;;;;12.77;7.53;;;;;;;12.04;76.35;98649.81;5000327;28;20069;-82
2023/01/01 08:57:08;;;;;;;14.05;7.57;;;;;;;12.05;76.19;98644.41;5000590;28;20096;-82
2023/01/01 08:59:33;;;;;;;13.07;7.90;;;;;;;12.01;76.29;98639.72;5000065;28;20112;-82
2023/01/01 09:01:59;;;;;;;11.95;7.55;;;;;;;12.04;76.38;98653.28;4999750;28;20054;-82
2023/01/01 09:04:25;;;;;;;13.27;7.63;;;;;;;12.03;76.70;98643.75;4999727;28;20034;-82
2023/01/01 09:06:50;;;;;;;14.50;8.43;;;;;;;12.05;76.63;98651.44;4999001;28;20026;-82
2023/01/01 09:09:16;;;;;;;11.77;7.35;;;;;;;12.03;76.58;98659.53;4998561;28;20096;-82
2023/01/01 09:11:51;;;;;;;12.75;7.85;;;;;;;12.04;76.66;98661.16;5001250;28;20035;-82
2023/01/01 09:14:17;;;;;;;10.05;6.85;;;;;;;12.06;76.59;98663.63;5005788;28;20073;-82
2023/01/01 09:16:42;;;;;;;11.02;7.65;;;;;;;12.10;76.58;98670.09;5000085;28;20150;-82
2023/01/01 09:19:08;;;;;;;11.40;7.25;;;;;;;12.13;76.21;98674.16;5003285;28;20117;-82
2023/01/01 09:21:33;;;;;;;12.73;7.45;;;;;;;12.12;76.28;98667.28;5003596;28;20031;-82
2023/01/01 09:23:59;;;;;;;10.60;7.22;;;;;;;12.23;75.86;98675.41;5003782;28;20388;-82
2023/01/01 09:26:24;;;;;;;10.98;7.28;;;;;;;12.28;75.91;98666.91;5001677;28;20117;-82
2023/01/01 09:28:50;;;;;;;11.60;7.25;;;;;;;12.45;75.35;98678.72;5003509;28;20038;-83
2023/01/01 09:31:16;;;;;;;10.90;7.10;;;;;;;12.53;75.33;98675.94;5001863;28;20029;-83
2023/01/01 09:33:41;;;;;;;9.93;7.22;;;;;;;12.65;75.09;98683.22;5002543;28;20523;-84
2023/01/01 09:36:17;;;;;;;14.75;7.57;;;;;;;12.79;74.11;98690.16;5000205;28;20366;-83
2023/01/01 09:38:51;;;;;;;10.85;6.95;;;;;;;12.91;74.42;98685.13;5000546;28;20042;-83
2023/01/01 09:41:47;;;;;;;10.48;7.03;;;;;;;13.06;72.74;98688.38;5001379;28;20083;-83
2023/01/01 09:44:33;;;;;;;11.55;6.85;;;;;;;13.12;72.60;98677.84;5000629;28;20476;-83
2023/01/01 09:47:04;;;;;;;9.00;6.47;;;;;;;13.32;72.43;98685.00;4995648;28;20477;-83
2023/01/01 09:49:38;;;;;;;9.20;6.63;;;;;;;13.40;71.96;98682.16;5001504;28;20065;-83
2023/01/01 09:52:04;;;;;;;9.25;6.93;;;;;;;13.49;71.24;98678.28;5000045;28;20437;-84
2023/01/01 09:54:39;;;;;;;8.63;6.25;;;;;;;13.49;71.09;98682.75;5001573;28;20034;-83
2023/01/01 09:57:10;;;;;;;12.90;8.10;;;;;;;13.51;71.61;98683.38;4997899;28;20074;-83
2023/01/01 09:59:35;;;;;;;8.88;7.03;;;;;;;13.50;70.93;98679.13;4988392;28;20061;-83
2023/01/01 10:02:28;;;;;;;12.07;7.65;;;;;;;13.50;71.26;98658.03;4996707;28;20081;-83
2023/01/01 10:05:25;;;;;;;10.60;6.70;;;;;;;13.48;70.79;98666.13;4998901;28;20140;-83
2023/01/01 10:08:09;;;;;;;8.30;5.97;;;;;;;13.52;71.52;98663.91;5001262;28;20108;-83
2023/01/01 10:10:48;;;;;;;11.05;7.03;;;;;;;13.51;71.03;98660.47;5000018;28;20048;-83
2023/01/01 10:13:37;;;;;;;8.50;5.97;;;;;;;13.46;70.80;98660.25;5005328;28;20390;-83
2023/01/01 10:16:11;;;;;;;9.95;5.70;;;;;;;13.45;70.73;98650.75;5003881;28;20030;-83
2023/01/01 10:18:40;;;;;;;9.20;5.93;;;;;;;13.51;70.93;98663.09;5003066;28;20160;-83
2023/01/01 10:21:20;;;;;;;9.00;5.57;;;;;;;13.47;70.70;98664.50;5003272;28;20030;-83
2023/01/01 10:24:05;;;;;;;9.32;6.60;;;;;;;13.50;70.87;98671.22;5001965;28;20030;-83
2023/01/01 10:26:36;;;;;;;10.25;6.45;;;;;;;13.52;71.28;98669.19;5000471;28;20117;-83
2023/01/01 10:29:43;;;;;;;8.98;6.32;;;;;;;13.49;71.29;98659.03;5001057;28;20042;-84
2023/01/01 10:32:37;;;;;;;11.00;6.00;;;;;;;13.51;71.09;98657.84;5001412;28;20073;-83
2023/01/01 10:35:18;;;;;;;17.17;8.73;;;;;;;13.54;71.02;98652.13;5007584;28;20041;-83
2023/01/01 10:37:44;;;;;;;13.07;7.10;;;;;;;13.57;70.54;98657.00;5000148;28;20038;-83
2023/01/01 10:40:22;;;;;;;11.35;6.38;;;;;;;13.70;70.22;98663.28;5000171;28;20045;-83
2023/01/01 10:42:52;;;;;;;9.75;5.93;;;;;;;13.75;70.23;98674.03;5000867;28;20117;-83
2023/01/01 10:45:31;;;;;;;15.03;7.53;;;;;;;13.81;69.68;98670.56;4996829;28;20045;-83
2023/01/01 10:48:27;;;;;;;10.85;6.38;;;;;;;13.87;69.63;98667.09;4999186;28;20284;-83
2023/01/01 10:50:58;;;;;;;13.80;6.70;;;;;;;13.93;69.34;98668.91;4998439;28;20117;-83
2023/01/01 10:53:40;;;;;;;12.40;6.28;;;;;;;14.00;69.47;98655.69;5001039;28;20525;-83
2023/01/01 10:56:16;;;;;;;14.52;7.30;;;;;;;14.06;68.92;98674.13;4998716;28;20038;-83
2023/01/01 10:58:51;;;;;;;12.60;7.18;;;;;;;14.09;68.38;98675.53;4999434;28;20030;-83
2023/01/01 11:01:16;;;;;;;12.88;6.93;;;;;;;14.13;69.26;98682.03;4995748;28;20547;-83
2023/01/01 11:04:19;;;;;;;8.63;5.70;;;;;;;14.14;68.91;98665.19;4996393;28;20048;-83
2023/01/01 11:06:47;;;;;;;13.32;8.23;;;;;;;14.10;68.30;98662.16;5003326;28;20050;-83
2023/01/01 11:09:30;;;;;;;12.82;7.95;;;;;;;14.07;68.15;98661.75;4998437;28;20562;-83
2023/01/01 11:12:05;;;;;;;8.93;5.32;;;;;;;14.12;68.22;98662.75;5001015;28;20034;-83
2023/01/01 11:14:42;;;;;;;6.70;4.65;;;;;;;14.12;67.88;98669.88;4999988;28;20034;-83
2023/01/01 11:17:09;;;;;;;8.02;4.88;;;;;;;14.12;67.47;98665.41;5001372;28;20033;-83
2023/01/01 11:19:40;;;;;;;7.28;4.90;;;;;;;14.15;67.70;98657.09;5000948;28;20046;-83
2023/01/01 11:22:26;;;;;;;7.00;4.55;;;;;;;14.22;67.88;98653.59;5000351;28;20038;-83
2023/01/01 11:25:00;;;;;;;6.45;4.43;;;;;;;14.24;67.71;98654.19;5000760;28;20031;-83
2023/01/01 11:27:26;;;;;;;10.90;4.63;;;;;;;14.26;67.32;98660.06;4999166;28;20088;-83
2023/01/01 11:30:20;;;;;;;7.10;4.40;;;;;;;14.36;67.02;98647.25;5000592;28;20030;-83
2023/01/01 11:32:48;;;;;;;7.78;4.88;;;;;;;14.43;66.59;98645.38;5000680;28;20034;-83
2023/01/01 11:35:22;;;;;;;7.00;5.05;;;;;;;14.47;66.79;98641.34;5000951;28;20042;-83
2023/01/01 11:37:50;;;;;;;8.07;4.80;;;;;;;14.48;66.61;98631.59;4999150;28;20363;-83
2023/01/01 11:40:21;;;;;;;7.07;4.47;;;;;;;14.50;66.71;98625.06;4998389;28;20038;-83
2023/01/01 11:43:00;;;;;;;6.45;4.50;;;;;;;14.51;66.18;98626.69;4998462;28;20068;-83
2023/01/01 11:45:41;;;;;;;7.00;4.32;;;;;;;14.52;66.08;98617.75;4995475;28;20093;-83